sensor_id;sensor_type;location;lat;lon;timestamp;P1;durP1;ratioP1;P2;durP2;ratioP2
73959;SDS011;62316;48.920;2.342;2022-09-12T00:02:09;15.67;;;13.67;;
73959;SDS011;62316;48.920;2.342;2022-09-12T00:04:34;14.00;;;12.00;;
73959;SDS011;62316;48.920;2.342;2022-09-12T00:07:00;12.33;;;11.67;;
73959;SDS011;62316;48.920;2.342;2022-09-12T00:09:25;13.33;;;13.33;;
73959;SDS011;62316;48.920;2.342;2022-09-12T00:11:50;15.33;;;13.00;;
73959;SDS011;62316;48.920;2.342;2022-09-12T00:14:16;15.33;;;13.67;;
73959;SDS011;62316;48.920;2.342;2022-09-12T00:16:43;11.33;;;11.00;;
73959;SDS011;62316;48.920;2.342;2022-09-12T00:19:09;12.00;;;11.00;;
73959;SDS011;62316;48.920;2.342;2022-09-12T00:21:35;12.67;;;9.33;;
73959;SDS011;62316;48.920;2.342;2022-09-12T00:24:02;13.75;;;13.75;;
73959;SDS011;62316;48.920;2.342;2022-09-12T00:26:27;14.25;;;12.00;;
73959;SDS011;62316;48.920;2.342;2022-09-12T00:28:53;12.33;;;12.33;;
73959;SDS011;62316;48.920;2.342;2022-09-12T00:31:19;13.33;;;13.33;;
73959;SDS011;62316;48.920;2.342;2022-09-12T00:33:50;9.50;;;8.75;;
73959;SDS011;62316;48.920;2.342;2022-09-12T00:36:17;12.67;;;12.33;;
73959;SDS011;62316;48.920;2.342;2022-09-12T00:38:44;15.33;;;14.33;;
73959;SDS011;62316;48.920;2.342;2022-09-12T00:41:13;13.00;;;13.00;;
73959;SDS011;62316;48.920;2.342;2022-09-12T00:43:48;15.33;;;15.33;;
73959;SDS011;62316;48.920;2.342;2022-09-12T00:49:02;17.00;;;16.67;;
73959;SDS011;62316;48.920;2.342;2022-09-12T00:51:31;10.00;;;9.33;;
73959;SDS011;62316;48.920;2.342;2022-09-12T00:53:59;16.67;;;15.00;;
73959;SDS011;62316;48.920;2.342;2022-09-12T00:56:27;15.50;;;15.50;;
73959;SDS011;62316;48.920;2.342;2022-09-12T00:58:54;18.00;;;16.33;;
73959;SDS011;62316;48.920;2.342;2022-09-12T01:01:23;16.00;;;13.67;;
73959;SDS011;62316;48.920;2.342;2022-09-12T01:03:48;19.50;;;16.50;;
73959;SDS011;62316;48.920;2.342;2022-09-12T01:06:26;16.00;;;15.50;;
73959;SDS011;62316;48.920;2.342;2022-09-12T01:08:54;14.50;;;13.50;;
73959;SDS011;62316;48.920;2.342;2022-09-12T01:11:20;16.00;;;15.00;;
73959;SDS011;62316;48.920;2.342;2022-09-12T01:13:46;19.33;;;17.00;;
73959;SDS011;62316;48.920;2.342;2022-09-12T01:16:12;22.00;;;18.25;;
73959;SDS011;62316;48.920;2.342;2022-09-12T01:18:54;18.00;;;16.67;;
73959;SDS011;62316;48.920;2.342;2022-09-12T01:38:12;20.67;;;16.67;;
73959;SDS011;62316;48.920;2.342;2022-09-12T01:40:41;15.67;;;15.67;;
73959;SDS011;62316;48.920;2.342;2022-09-12T01:43:16;13.67;;;12.00;;
73959;SDS011;62316;48.920;2.342;2022-09-12T01:48:29;15.33;;;14.33;;
73959;SDS011;62316;48.920;2.342;2022-09-12T01:53:56;19.33;;;17.33;;
73959;SDS011;62316;48.920;2.342;2022-09-12T01:56:30;18.33;;;16.00;;
73959;SDS011;62316;48.920;2.342;2022-09-12T01:59:05;16.33;;;15.00;;
73959;SDS011;62316;48.920;2.342;2022-09-12T02:02:06;19.00;;;16.67;;
73959;SDS011;62316;48.920;2.342;2022-09-12T02:04:43;15.75;;;15.75;;
73959;SDS011;62316;48.920;2.342;2022-09-12T02:07:22;19.25;;;17.75;;
73959;SDS011;62316;48.920;2.342;2022-09-12T02:09:53;20.25;;;14.25;;
73959;SDS011;62316;48.920;2.342;2022-09-12T02:12:23;21.25;;;18.75;;
73959;SDS011;62316;48.920;2.342;2022-09-12T02:14:52;18.75;;;18.75;;
73959;SDS011;62316;48.920;2.342;2022-09-12T02:17:26;20.25;;;19.00;;
73959;SDS011;62316;48.920;2.342;2022-09-12T02:19:55;16.50;;;15.50;;
73959;SDS011;62316;48.920;2.342;2022-09-12T02:22:24;16.33;;;15.33;;
73959;SDS011;62316;48.920;2.342;2022-09-12T02:24:53;17.67;;;16.00;;
73959;SDS011;62316;48.920;2.342;2022-09-12T02:27:56;16.67;;;16.67;;
73959;SDS011;62316;48.920;2.342;2022-09-12T02:30:20;18.25;;;15.25;;
73959;SDS011;62316;48.920;2.342;2022-09-12T02:37:59;19.00;;;17.00;;
73959;SDS011;62316;48.920;2.342;2022-09-12T02:40:29;18.00;;;17.33;;
73959;SDS011;62316;48.920;2.342;2022-09-12T02:42:55;20.00;;;18.00;;
73959;SDS011;62316;48.920;2.342;2022-09-12T02:45:21;13.67;;;13.67;;
73959;SDS011;62316;48.920;2.342;2022-09-12T02:47:48;16.00;;;14.00;;
73959;SDS011;62316;48.920;2.342;2022-09-12T02:50:17;18.75;;;16.00;;
73959;SDS011;62316;48.920;2.342;2022-09-12T02:52:43;19.67;;;15.33;;
73959;SDS011;62316;48.920;2.342;2022-09-12T02:55:08;19.33;;;18.33;;
73959;SDS011;62316;48.920;2.342;2022-09-12T02:57:37;16.33;;;15.00;;
73959;SDS011;62316;48.920;2.342;2022-09-12T03:00:03;14.00;;;13.00;;
73959;SDS011;62316;48.920;2.342;2022-09-12T03:02:42;13.00;;;13.00;;
73959;SDS011;62316;48.920;2.342;2022-09-12T03:17:10;13.33;;;13.33;;
73959;SDS011;62316;48.920;2.342;2022-09-12T03:19:51;12.67;;;12.67;;
73959;SDS011;62316;48.920;2.342;2022-09-12T03:25:02;15.00;;;14.00;;
73959;SDS011;62316;48.920;2.342;2022-09-12T03:27:32;17.67;;;17.67;;
73959;SDS011;62316;48.920;2.342;2022-09-12T03:30:00;15.67;;;13.00;;
73959;SDS011;62316;48.920;2.342;2022-09-12T03:32:44;14.33;;;14.33;;
73959;SDS011;62316;48.920;2.342;2022-09-12T03:35:11;17.00;;;16.00;;
73959;SDS011;62316;48.920;2.342;2022-09-12T03:37:37;17.00;;;16.67;;
73959;SDS011;62316;48.920;2.342;2022-09-12T03:40:03;13.00;;;10.67;;
73959;SDS011;62316;48.920;2.342;2022-09-12T03:42:30;20.00;;;18.75;;
73959;SDS011;62316;48.920;2.342;2022-09-12T03:44:56;18.00;;;16.00;;
73959;SDS011;62316;48.920;2.342;2022-09-12T03:47:21;12.00;;;12.00;;
73959;SDS011;62316;48.920;2.342;2022-09-12T03:49:46;15.33;;;13.67;;
73959;SDS011;62316;48.920;2.342;2022-09-12T03:52:12;17.67;;;16.67;;
73959;SDS011;62316;48.920;2.342;2022-09-12T03:54:37;19.67;;;17.33;;
73959;SDS011;62316;48.920;2.342;2022-09-12T03:57:03;13.00;;;13.00;;
73959;SDS011;62316;48.920;2.342;2022-09-12T03:59:29;14.00;;;13.50;;
73959;SDS011;62316;48.920;2.342;2022-09-12T04:01:55;18.00;;;16.00;;
73959;SDS011;62316;48.920;2.342;2022-09-12T04:04:20;18.25;;;17.25;;
73959;SDS011;62316;48.920;2.342;2022-09-12T04:06:46;16.50;;;15.50;;
73959;SDS011;62316;48.920;2.342;2022-09-12T04:09:11;30.75;;;28.75;;
73959;SDS011;62316;48.920;2.342;2022-09-12T04:11:36;16.00;;;14.67;;
73959;SDS011;62316;48.920;2.342;2022-09-12T04:14:02;24.67;;;19.00;;
73959;SDS011;62316;48.920;2.342;2022-09-12T04:16:27;18.50;;;17.00;;
73959;SDS011;62316;48.920;2.342;2022-09-12T04:18:53;17.00;;;16.00;;
73959;SDS011;62316;48.920;2.342;2022-09-12T04:21:19;23.33;;;22.33;;
73959;SDS011;62316;48.920;2.342;2022-09-12T04:23:46;15.50;;;14.50;;
73959;SDS011;62316;48.920;2.342;2022-09-12T04:26:11;15.75;;;14.00;;
73959;SDS011;62316;48.920;2.342;2022-09-12T04:28:37;18.67;;;17.00;;
73959;SDS011;62316;48.920;2.342;2022-09-12T04:31:03;20.25;;;17.75;;
73959;SDS011;62316;48.920;2.342;2022-09-12T04:33:31;20.00;;;17.33;;
73959;SDS011;62316;48.920;2.342;2022-09-12T04:36:01;18.50;;;18.50;;
73959;SDS011;62316;48.920;2.342;2022-09-12T04:38:30;19.00;;;17.75;;
73959;SDS011;62316;48.920;2.342;2022-09-12T04:41:09;20.50;;;18.25;;
73959;SDS011;62316;48.920;2.342;2022-09-12T04:43:42;24.00;;;20.00;;
73959;SDS011;62316;48.920;2.342;2022-09-12T04:46:10;22.50;;;21.25;;
73959;SDS011;62316;48.920;2.342;2022-09-12T04:48:37;23.50;;;21.50;;
73959;SDS011;62316;48.920;2.342;2022-09-12T04:51:07;23.00;;;21.25;;
73959;SDS011;62316;48.920;2.342;2022-09-12T04:53:33;21.50;;;18.50;;
73959;SDS011;62316;48.920;2.342;2022-09-12T04:56:06;20.00;;;19.00;;
73959;SDS011;62316;48.920;2.342;2022-09-12T04:58:35;23.50;;;21.75;;
73959;SDS011;62316;48.920;2.342;2022-09-12T05:03:36;17.75;;;17.00;;
73959;SDS011;62316;48.920;2.342;2022-09-12T05:06:04;15.67;;;15.67;;
73959;SDS011;62316;48.920;2.342;2022-09-12T05:08:31;19.75;;;19.75;;
73959;SDS011;62316;48.920;2.342;2022-09-12T05:11:00;22.67;;;16.33;;
73959;SDS011;62316;48.920;2.342;2022-09-12T05:13:27;22.25;;;18.25;;
73959;SDS011;62316;48.920;2.342;2022-09-12T05:15:56;31.00;;;27.25;;
73959;SDS011;62316;48.920;2.342;2022-09-12T05:18:22;18.67;;;15.33;;
73959;SDS011;62316;48.920;2.342;2022-09-12T05:20:48;24.25;;;20.25;;
73959;SDS011;62316;48.920;2.342;2022-09-12T05:23:14;17.67;;;16.67;;
73959;SDS011;62316;48.920;2.342;2022-09-12T05:25:46;28.50;;;25.00;;
73959;SDS011;62316;48.920;2.342;2022-09-12T05:28:15;17.67;;;15.33;;
73959;SDS011;62316;48.920;2.342;2022-09-12T05:30:41;20.33;;;19.00;;
73959;SDS011;62316;48.920;2.342;2022-09-12T05:33:06;17.00;;;16.00;;
73959;SDS011;62316;48.920;2.342;2022-09-12T05:35:32;25.00;;;23.67;;
73959;SDS011;62316;48.920;2.342;2022-09-12T05:37:57;19.00;;;19.00;;
73959;SDS011;62316;48.920;2.342;2022-09-12T05:40:23;19.00;;;18.00;;
73959;SDS011;62316;48.920;2.342;2022-09-12T05:42:48;23.00;;;21.75;;
73959;SDS011;62316;48.920;2.342;2022-09-12T05:45:14;17.25;;;14.75;;
73959;SDS011;62316;48.920;2.342;2022-09-12T05:47:39;18.75;;;16.00;;
73959;SDS011;62316;48.920;2.342;2022-09-12T05:50:06;19.25;;;16.75;;
73959;SDS011;62316;48.920;2.342;2022-09-12T05:52:34;21.75;;;20.25;;
73959;SDS011;62316;48.920;2.342;2022-09-12T05:55:00;19.50;;;18.25;;
73959;SDS011;62316;48.920;2.342;2022-09-12T05:57:26;10.25;;;9.25;;
73959;SDS011;62316;48.920;2.342;2022-09-12T05:59:51;20.25;;;18.00;;
73959;SDS011;62316;48.920;2.342;2022-09-12T06:02:16;23.25;;;19.00;;
73959;SDS011;62316;48.920;2.342;2022-09-12T06:04:42;20.75;;;19.50;;
73959;SDS011;62316;48.920;2.342;2022-09-12T06:07:07;22.25;;;19.75;;
73959;SDS011;62316;48.920;2.342;2022-09-12T06:09:33;23.25;;;21.50;;
73959;SDS011;62316;48.920;2.342;2022-09-12T06:11:58;26.50;;;24.50;;
73959;SDS011;62316;48.920;2.342;2022-09-12T06:14:24;20.50;;;19.25;;
73959;SDS011;62316;48.920;2.342;2022-09-12T06:16:50;19.25;;;17.00;;
73959;SDS011;62316;48.920;2.342;2022-09-12T06:19:18;19.50;;;18.25;;
73959;SDS011;62316;48.920;2.342;2022-09-12T06:21:45;25.50;;;21.00;;
73959;SDS011;62316;48.920;2.342;2022-09-12T06:24:13;20.75;;;19.50;;
73959;SDS011;62316;48.920;2.342;2022-09-12T06:26:39;18.00;;;17.25;;
73959;SDS011;62316;48.920;2.342;2022-09-12T06:29:08;22.75;;;20.50;;
73959;SDS011;62316;48.920;2.342;2022-09-12T06:31:35;22.25;;;19.75;;
73959;SDS011;62316;48.920;2.342;2022-09-12T06:34:03;22.75;;;19.50;;
73959;SDS011;62316;48.920;2.342;2022-09-12T06:36:32;19.75;;;17.75;;
73959;SDS011;62316;48.920;2.342;2022-09-12T06:39:02;22.50;;;20.00;;
73959;SDS011;62316;48.920;2.342;2022-09-12T06:41:29;21.00;;;18.50;;
73959;SDS011;62316;48.920;2.342;2022-09-12T06:43:56;25.50;;;19.75;;
73959;SDS011;62316;48.920;2.342;2022-09-12T06:46:22;24.25;;;22.25;;
73959;SDS011;62316;48.920;2.342;2022-09-12T06:48:48;22.00;;;20.75;;
73959;SDS011;62316;48.920;2.342;2022-09-12T06:51:15;14.75;;;13.50;;
73959;SDS011;62316;48.920;2.342;2022-09-12T06:53:45;22.33;;;22.33;;
73959;SDS011;62316;48.920;2.342;2022-09-12T06:56:12;19.75;;;17.50;;
73959;SDS011;62316;48.920;2.342;2022-09-12T06:58:46;28.50;;;24.50;;
73959;SDS011;62316;48.920;2.342;2022-09-12T07:01:16;19.50;;;18.50;;
73959;SDS011;62316;48.920;2.342;2022-09-12T07:03:46;23.00;;;20.00;;
73959;SDS011;62316;48.920;2.342;2022-09-12T07:06:17;9.50;;;8.50;;
73959;SDS011;62316;48.920;2.342;2022-09-12T07:08:44;27.50;;;27.50;;
73959;SDS011;62316;48.920;2.342;2022-09-12T07:11:14;19.00;;;18.25;;
73959;SDS011;62316;48.920;2.342;2022-09-12T07:13:44;20.25;;;19.25;;
73959;SDS011;62316;48.920;2.342;2022-09-12T07:16:11;23.00;;;20.25;;
73959;SDS011;62316;48.920;2.342;2022-09-12T07:18:37;19.00;;;15.50;;
73959;SDS011;62316;48.920;2.342;2022-09-12T07:21:04;20.50;;;18.75;;
73959;SDS011;62316;48.920;2.342;2022-09-12T07:23:31;17.75;;;17.75;;
73959;SDS011;62316;48.920;2.342;2022-09-12T07:25:57;18.50;;;17.50;;
73959;SDS011;62316;48.920;2.342;2022-09-12T07:28:25;20.50;;;18.50;;
73959;SDS011;62316;48.920;2.342;2022-09-12T07:30:52;20.00;;;18.25;;
73959;SDS011;62316;48.920;2.342;2022-09-12T07:33:21;19.50;;;18.50;;
73959;SDS011;62316;48.920;2.342;2022-09-12T07:35:48;28.75;;;24.75;;
73959;SDS011;62316;48.920;2.342;2022-09-12T07:38:14;25.75;;;25.50;;
73959;SDS011;62316;48.920;2.342;2022-09-12T07:40:40;21.00;;;18.00;;
73959;SDS011;62316;48.920;2.342;2022-09-12T07:43:05;20.00;;;20.00;;
73959;SDS011;62316;48.920;2.342;2022-09-12T07:45:31;23.00;;;20.75;;
73959;SDS011;62316;48.920;2.342;2022-09-12T07:47:56;15.75;;;14.00;;
73959;SDS011;62316;48.920;2.342;2022-09-12T07:50:21;20.50;;;18.50;;
73959;SDS011;62316;48.920;2.342;2022-09-12T07:52:47;19.33;;;19.00;;
73959;SDS011;62316;48.920;2.342;2022-09-12T07:55:12;19.67;;;18.33;;
73959;SDS011;62316;48.920;2.342;2022-09-12T07:57:38;22.25;;;20.00;;
73959;SDS011;62316;48.920;2.342;2022-09-12T08:00:04;22.50;;;21.50;;
73959;SDS011;62316;48.920;2.342;2022-09-12T08:02:30;24.00;;;19.00;;
73959;SDS011;62316;48.920;2.342;2022-09-12T08:04:55;26.25;;;24.75;;
73959;SDS011;62316;48.920;2.342;2022-09-12T08:07:21;38.50;;;34.25;;
73959;SDS011;62316;48.920;2.342;2022-09-12T08:09:46;18.67;;;15.67;;
73959;SDS011;62316;48.920;2.342;2022-09-12T08:12:12;21.00;;;17.00;;
73959;SDS011;62316;48.920;2.342;2022-09-12T08:14:37;21.33;;;20.00;;
73959;SDS011;62316;48.920;2.342;2022-09-12T08:17:03;20.75;;;20.00;;
73959;SDS011;62316;48.920;2.342;2022-09-12T08:19:28;16.67;;;16.67;;
73959;SDS011;62316;48.920;2.342;2022-09-12T08:21:53;17.75;;;15.50;;
73959;SDS011;62316;48.920;2.342;2022-09-12T08:24:19;21.33;;;18.33;;
73959;SDS011;62316;48.920;2.342;2022-09-12T08:26:44;22.75;;;19.75;;
73959;SDS011;62316;48.920;2.342;2022-09-12T08:29:10;18.75;;;16.75;;
73959;SDS011;62316;48.920;2.342;2022-09-12T08:31:35;17.50;;;17.50;;
73959;SDS011;62316;48.920;2.342;2022-09-12T08:34:01;16.67;;;15.00;;
73959;SDS011;62316;48.920;2.342;2022-09-12T08:36:29;15.33;;;13.00;;
73959;SDS011;62316;48.920;2.342;2022-09-12T08:38:56;20.50;;;19.75;;
73959;SDS011;62316;48.920;2.342;2022-09-12T08:46:28;20.00;;;15.25;;
73959;SDS011;62316;48.920;2.342;2022-09-12T08:49:16;14.33;;;14.33;;
73959;SDS011;62316;48.920;2.342;2022-09-12T08:51:58;16.67;;;14.67;;
73959;SDS011;62316;48.920;2.342;2022-09-12T08:54:37;20.50;;;14.50;;
73959;SDS011;62316;48.920;2.342;2022-09-12T08:57:07;19.00;;;13.33;;
73959;SDS011;62316;48.920;2.342;2022-09-12T08:59:44;15.75;;;15.00;;
73959;SDS011;62316;48.920;2.342;2022-09-12T09:02:23;14.67;;;11.67;;
73959;SDS011;62316;48.920;2.342;2022-09-12T09:05:16;12.00;;;10.33;;
73959;SDS011;62316;48.920;2.342;2022-09-12T09:19:36;13.33;;;11.33;;
73959;SDS011;62316;48.920;2.342;2022-09-12T09:22:08;15.00;;;10.33;;
73959;SDS011;62316;48.920;2.342;2022-09-12T09:25:01;12.67;;;11.33;;
73959;SDS011;62316;48.920;2.342;2022-09-12T09:30:31;7.33;;;7.33;;
73959;SDS011;62316;48.920;2.342;2022-09-12T09:32:59;12.33;;;10.67;;
73959;SDS011;62316;48.920;2.342;2022-09-12T09:41:00;8.00;;;8.00;;
73959;SDS011;62316;48.920;2.342;2022-09-12T09:43:31;11.33;;;8.33;;
73959;SDS011;62316;48.920;2.342;2022-09-12T09:45:56;9.33;;;8.67;;
73959;SDS011;62316;48.920;2.342;2022-09-12T09:48:34;9.67;;;8.00;;
73959;SDS011;62316;48.920;2.342;2022-09-12T09:51:03;8.00;;;8.00;;
73959;SDS011;62316;48.920;2.342;2022-09-12T09:56:08;7.33;;;6.33;;
73959;SDS011;62316;48.920;2.342;2022-09-12T09:58:36;10.33;;;6.67;;
73959;SDS011;62316;48.920;2.342;2022-09-12T10:01:04;9.67;;;8.00;;
73959;SDS011;62316;48.920;2.342;2022-09-12T10:03:36;10.67;;;10.00;;
73959;SDS011;62316;48.920;2.342;2022-09-12T10:08:44;9.33;;;7.33;;
73959;SDS011;62316;48.920;2.342;2022-09-12T10:18:55;9.00;;;8.00;;
73959;SDS011;62316;48.920;2.342;2022-09-12T10:21:24;4.67;;;4.33;;
73959;SDS011;62316;48.920;2.342;2022-09-12T10:23:57;3.67;;;2.33;;
73959;SDS011;62316;48.920;2.342;2022-09-12T10:26:24;4.67;;;4.67;;
73959;SDS011;62316;48.920;2.342;2022-09-12T10:28:51;5.33;;;5.00;;
73959;SDS011;62316;48.920;2.342;2022-09-12T10:31:35;6.67;;;6.33;;
73959;SDS011;62316;48.920;2.342;2022-09-12T10:34:09;4.67;;;3.67;;
73959;SDS011;62316;48.920;2.342;2022-09-12T10:36:48;2.00;;;1.00;;
73959;SDS011;62316;48.920;2.342;2022-09-12T10:39:17;2.00;;;2.00;;
73959;SDS011;62316;48.920;2.342;2022-09-12T10:41:43;1.67;;;1.67;;
73959;SDS011;62316;48.920;2.342;2022-09-12T10:44:43;4.67;;;3.00;;
73959;SDS011;62316;48.920;2.342;2022-09-12T10:47:20;3.67;;;3.33;;
73959;SDS011;62316;48.920;2.342;2022-09-12T10:49:59;4.33;;;3.33;;
73959;SDS011;62316;48.920;2.342;2022-09-12T10:52:51;4.67;;;3.00;;
73959;SDS011;62316;48.920;2.342;2022-09-12T10:55:17;2.33;;;2.33;;
73959;SDS011;62316;48.920;2.342;2022-09-12T10:57:53;5.00;;;5.00;;
73959;SDS011;62316;48.920;2.342;2022-09-12T11:00:27;7.00;;;7.00;;
73959;SDS011;62316;48.920;2.342;2022-09-12T11:02:58;5.67;;;5.67;;
73959;SDS011;62316;48.920;2.342;2022-09-12T11:08:27;5.00;;;4.67;;
73959;SDS011;62316;48.920;2.342;2022-09-12T11:13:28;3.00;;;3.00;;
73959;SDS011;62316;48.920;2.342;2022-09-12T11:16:19;12.67;;;11.00;;
73959;SDS011;62316;48.920;2.342;2022-09-12T11:24:22;2.67;;;2.67;;
73959;SDS011;62316;48.920;2.342;2022-09-12T11:35:30;5.67;;;4.33;;
73959;SDS011;62316;48.920;2.342;2022-09-12T11:45:52;3.33;;;3.33;;
73959;SDS011;62316;48.920;2.342;2022-09-12T11:48:29;5.00;;;5.00;;
73959;SDS011;62316;48.920;2.342;2022-09-12T11:51:18;3.33;;;3.33;;
73959;SDS011;62316;48.920;2.342;2022-09-12T11:53:46;3.67;;;3.67;;
73959;SDS011;62316;48.920;2.342;2022-09-12T11:56:46;4.67;;;2.00;;
73959;SDS011;62316;48.920;2.342;2022-09-12T11:59:24;3.33;;;2.00;;
73959;SDS011;62316;48.920;2.342;2022-09-12T12:01:56;4.00;;;3.67;;
73959;SDS011;62316;48.920;2.342;2022-09-12T12:04:24;2.33;;;2.00;;
73959;SDS011;62316;48.920;2.342;2022-09-12T12:07:04;2.00;;;1.00;;
73959;SDS011;62316;48.920;2.342;2022-09-12T12:09:31;1.67;;;1.00;;
73959;SDS011;62316;48.920;2.342;2022-09-12T12:11:58;4.33;;;3.00;;
73959;SDS011;62316;48.920;2.342;2022-09-12T12:17:03;4.33;;;4.00;;
73959;SDS011;62316;48.920;2.342;2022-09-12T12:19:35;1.67;;;1.67;;
73959;SDS011;62316;48.920;2.342;2022-09-12T12:22:05;3.67;;;3.67;;
73959;SDS011;62316;48.920;2.342;2022-09-12T12:24:52;2.00;;;2.00;;
73959;SDS011;62316;48.920;2.342;2022-09-12T12:33:00;3.00;;;3.00;;
73959;SDS011;62316;48.920;2.342;2022-09-12T12:35:36;3.00;;;3.00;;
73959;SDS011;62316;48.920;2.342;2022-09-12T12:38:11;2.00;;;2.00;;
73959;SDS011;62316;48.920;2.342;2022-09-12T12:40:52;5.00;;;4.00;;
73959;SDS011;62316;48.920;2.342;2022-09-12T12:43:27;2.67;;;2.67;;
73959;SDS011;62316;48.920;2.342;2022-09-12T12:46:03;6.33;;;3.00;;
73959;SDS011;62316;48.920;2.342;2022-09-12T12:48:30;5.33;;;5.33;;
73959;SDS011;62316;48.920;2.342;2022-09-12T12:53:54;3.67;;;2.00;;
73959;SDS011;62316;48.920;2.342;2022-09-12T12:56:39;2.00;;;2.00;;
73959;SDS011;62316;48.920;2.342;2022-09-12T12:59:11;2.33;;;2.33;;
73959;SDS011;62316;48.920;2.342;2022-09-12T13:01:48;4.00;;;3.00;;
73959;SDS011;62316;48.920;2.342;2022-09-12T13:04:16;2.67;;;2.67;;
73959;SDS011;62316;48.920;2.342;2022-09-12T13:06:44;1.33;;;1.33;;
73959;SDS011;62316;48.920;2.342;2022-09-12T13:12:04;2.67;;;2.67;;
73959;SDS011;62316;48.920;2.342;2022-09-12T13:17:07;4.00;;;4.00;;
73959;SDS011;62316;48.920;2.342;2022-09-12T13:19:40;3.00;;;3.00;;
73959;SDS011;62316;48.920;2.342;2022-09-12T13:22:06;2.00;;;2.00;;
73959;SDS011;62316;48.920;2.342;2022-09-12T13:24:34;4.33;;;3.00;;
73959;SDS011;62316;48.920;2.342;2022-09-12T13:27:21;2.00;;;2.00;;
73959;SDS011;62316;48.920;2.342;2022-09-12T13:30:36;1.67;;;1.67;;
73959;SDS011;62316;48.920;2.342;2022-09-12T13:32:39;2.00;;;1.33;;
73959;SDS011;62316;48.920;2.342;2022-09-12T13:35:11;1.33;;;1.33;;
73959;SDS011;62316;48.920;2.342;2022-09-12T13:43:11;5.33;;;2.33;;
73959;SDS011;62316;48.920;2.342;2022-09-12T13:45:41;1.33;;;1.33;;
73959;SDS011;62316;48.920;2.342;2022-09-12T13:48:11;2.00;;;2.00;;
73959;SDS011;62316;48.920;2.342;2022-09-12T13:53:16;3.00;;;2.67;;
73959;SDS011;62316;48.920;2.342;2022-09-12T13:55:44;6.33;;;5.33;;
73959;SDS011;62316;48.920;2.342;2022-09-12T14:00:43;3.00;;;3.00;;
73959;SDS011;62316;48.920;2.342;2022-09-12T14:03:28;4.00;;;4.00;;
73959;SDS011;62316;48.920;2.342;2022-09-12T14:06:13;3.00;;;2.00;;
73959;SDS011;62316;48.920;2.342;2022-09-12T14:08:40;2.33;;;2.33;;
73959;SDS011;62316;48.920;2.342;2022-09-12T14:11:10;3.67;;;3.00;;
73959;SDS011;62316;48.920;2.342;2022-09-12T14:13:36;1.67;;;0.33;;
73959;SDS011;62316;48.920;2.342;2022-09-12T14:16:03;2.67;;;2.67;;
73959;SDS011;62316;48.920;2.342;2022-09-12T14:18:32;7.00;;;6.67;;
73959;SDS011;62316;48.920;2.342;2022-09-12T14:21:06;5.67;;;5.67;;
73959;SDS011;62316;48.920;2.342;2022-09-12T14:23:34;3.67;;;3.67;;
73959;SDS011;62316;48.920;2.342;2022-09-12T14:26:04;2.00;;;2.00;;
73959;SDS011;62316;48.920;2.342;2022-09-12T14:28:35;14.33;;;12.00;;
73959;SDS011;62316;48.920;2.342;2022-09-12T14:31:05;2.00;;;2.00;;
73959;SDS011;62316;48.920;2.342;2022-09-12T14:33:47;3.00;;;3.00;;
73959;SDS011;62316;48.920;2.342;2022-09-12T14:38:49;1.67;;;1.67;;
73959;SDS011;62316;48.920;2.342;2022-09-12T14:41:21;2.33;;;2.00;;
73959;SDS011;62316;48.920;2.342;2022-09-12T14:43:53;2.67;;;2.67;;
73959;SDS011;62316;48.920;2.342;2022-09-12T14:48:56;2.00;;;2.00;;
73959;SDS011;62316;48.920;2.342;2022-09-12T14:51:32;3.00;;;1.67;;
73959;SDS011;62316;48.920;2.342;2022-09-12T14:53:59;1.00;;;1.00;;
73959;SDS011;62316;48.920;2.342;2022-09-12T14:56:41;3.00;;;3.00;;
73959;SDS011;62316;48.920;2.342;2022-09-12T15:07:34;3.67;;;3.00;;
73959;SDS011;62316;48.920;2.342;2022-09-12T15:10:03;3.00;;;3.00;;
73959;SDS011;62316;48.920;2.342;2022-09-12T15:12:30;5.67;;;4.33;;
73959;SDS011;62316;48.920;2.342;2022-09-12T15:14:57;6.00;;;3.67;;
73959;SDS011;62316;48.920;2.342;2022-09-12T15:17:25;1.67;;;1.67;;
73959;SDS011;62316;48.920;2.342;2022-09-12T15:19:50;4.00;;;4.00;;
73959;SDS011;62316;48.920;2.342;2022-09-12T15:22:16;3.33;;;3.33;;
73959;SDS011;62316;48.920;2.342;2022-09-12T15:24:42;5.33;;;5.33;;
73959;SDS011;62316;48.920;2.342;2022-09-12T15:27:08;3.33;;;3.33;;
73959;SDS011;62316;48.920;2.342;2022-09-12T15:29:36;1.33;;;1.33;;
73959;SDS011;62316;48.920;2.342;2022-09-12T15:32:01;3.00;;;3.00;;
73959;SDS011;62316;48.920;2.342;2022-09-12T15:34:28;2.33;;;2.00;;
73959;SDS011;62316;48.920;2.342;2022-09-12T15:36:53;6.00;;;6.00;;
73959;SDS011;62316;48.920;2.342;2022-09-12T15:39:18;2.67;;;2.67;;
73959;SDS011;62316;48.920;2.342;2022-09-12T15:41:44;2.00;;;2.00;;
73959;SDS011;62316;48.920;2.342;2022-09-12T15:44:11;5.00;;;5.00;;
73959;SDS011;62316;48.920;2.342;2022-09-12T15:46:37;8.00;;;8.00;;
73959;SDS011;62316;48.920;2.342;2022-09-12T15:49:02;5.67;;;5.67;;
73959;SDS011;62316;48.920;2.342;2022-09-12T15:51:28;4.00;;;2.00;;
73959;SDS011;62316;48.920;2.342;2022-09-12T15:53:53;3.00;;;2.00;;
73959;SDS011;62316;48.920;2.342;2022-09-12T15:56:19;4.00;;;4.00;;
73959;SDS011;62316;48.920;2.342;2022-09-12T15:58:46;2.00;;;2.00;;
73959;SDS011;62316;48.920;2.342;2022-09-12T16:01:12;4.67;;;3.67;;
73959;SDS011;62316;48.920;2.342;2022-09-12T16:03:39;3.00;;;3.00;;
73959;SDS011;62316;48.920;2.342;2022-09-12T16:06:05;3.00;;;3.00;;
73959;SDS011;62316;48.920;2.342;2022-09-12T16:08:33;3.00;;;3.00;;
73959;SDS011;62316;48.920;2.342;2022-09-12T16:11:00;3.00;;;3.00;;
73959;SDS011;62316;48.920;2.342;2022-09-12T16:13:28;3.00;;;3.00;;
73959;SDS011;62316;48.920;2.342;2022-09-12T16:15:57;1.67;;;1.67;;
73959;SDS011;62316;48.920;2.342;2022-09-12T16:18:23;1.00;;;1.00;;
73959;SDS011;62316;48.920;2.342;2022-09-12T16:20:52;2.00;;;2.00;;
73959;SDS011;62316;48.920;2.342;2022-09-12T16:23:18;3.00;;;1.67;;
73959;SDS011;62316;48.920;2.342;2022-09-12T16:25:44;3.00;;;3.00;;
73959;SDS011;62316;48.920;2.342;2022-09-12T16:28:10;1.67;;;1.67;;
73959;SDS011;62316;48.920;2.342;2022-09-12T16:30:35;2.67;;;2.67;;
73959;SDS011;62316;48.920;2.342;2022-09-12T16:33:01;3.33;;;3.33;;
73959;SDS011;62316;48.920;2.342;2022-09-12T16:35:27;3.33;;;3.33;;
73959;SDS011;62316;48.920;2.342;2022-09-12T16:37:52;2.33;;;2.33;;
73959;SDS011;62316;48.920;2.342;2022-09-12T16:40:17;2.00;;;2.00;;
73959;SDS011;62316;48.920;2.342;2022-09-12T16:42:43;2.67;;;2.67;;
73959;SDS011;62316;48.920;2.342;2022-09-12T16:45:10;3.00;;;2.67;;
73959;SDS011;62316;48.920;2.342;2022-09-12T16:47:36;2.00;;;2.00;;
73959;SDS011;62316;48.920;2.342;2022-09-12T16:50:02;11.33;;;10.00;;
73959;SDS011;62316;48.920;2.342;2022-09-12T16:52:28;6.00;;;4.67;;
73959;SDS011;62316;48.920;2.342;2022-09-12T16:54:55;2.33;;;2.33;;
73959;SDS011;62316;48.920;2.342;2022-09-12T16:57:20;2.33;;;1.67;;
73959;SDS011;62316;48.920;2.342;2022-09-12T16:59:46;3.00;;;2.00;;
73959;SDS011;62316;48.920;2.342;2022-09-12T17:02:12;2.67;;;2.67;;
73959;SDS011;62316;48.920;2.342;2022-09-12T17:04:38;3.00;;;3.00;;
73959;SDS011;62316;48.920;2.342;2022-09-12T17:07:03;2.67;;;2.67;;
73959;SDS011;62316;48.920;2.342;2022-09-12T17:09:29;2.00;;;2.00;;
73959;SDS011;62316;48.920;2.342;2022-09-12T17:11:54;4.00;;;4.00;;
73959;SDS011;62316;48.920;2.342;2022-09-12T17:14:20;4.00;;;3.00;;
73959;SDS011;62316;48.920;2.342;2022-09-12T17:16:46;2.00;;;1.67;;
73959;SDS011;62316;48.920;2.342;2022-09-12T17:19:15;3.67;;;3.67;;
73959;SDS011;62316;48.920;2.342;2022-09-12T17:21:46;5.00;;;5.00;;